createdAt,value
2018-04-08T00:00:17.249Z,6.67
2018-04-08T00:02:44.735Z,6.93
2018-04-08T00:05:12.237Z,6.33
2018-04-08T00:07:39.721Z,5.97
2018-04-08T00:10:08.544Z,5.60
2018-04-08T00:12:36.030Z,5.47
2018-04-08T00:15:05.678Z,6.03
2018-04-08T00:17:33.170Z,7.37
2018-04-08T00:20:00.673Z,6.50
2018-04-08T00:22:28.154Z,6.17
2018-04-08T00:24:55.728Z,6.20
2018-04-08T00:27:23.329Z,6.93
2018-04-08T00:29:51.935Z,6.77
2018-04-08T00:32:20.152Z,6.43
2018-04-08T00:34:47.689Z,7.00
2018-04-08T00:37:15.172Z,5.67
2018-04-08T00:39:42.670Z,5.20
2018-04-08T00:42:10.162Z,7.07
2018-04-08T00:44:37.670Z,7.40
2018-04-08T00:47:05.138Z,7.17
2018-04-08T00:49:32.769Z,7.10
2018-04-08T00:52:00.277Z,8.00
2018-04-08T00:54:30.460Z,9.30
2018-04-08T00:56:58.752Z,8.93
2018-04-08T00:59:26.998Z,8.70
2018-04-08T01:01:54.509Z,8.50
2018-04-08T01:04:22.021Z,6.83
2018-04-08T01:06:49.503Z,7.03
2018-04-08T01:09:17.759Z,5.73
2018-04-08T01:11:45.248Z,6.20
2018-04-08T01:14:12.722Z,5.70
2018-04-08T01:16:41.006Z,7.37
2018-04-08T01:19:08.526Z,8.23
2018-04-08T01:21:36.769Z,8.57
2018-04-08T01:24:04.247Z,8.07
2018-04-08T01:26:31.760Z,8.60
2018-04-08T01:28:59.301Z,7.87
2018-04-08T01:31:26.779Z,7.83
2018-04-08T01:33:54.286Z,9.50
2018-04-08T01:36:22.527Z,10.57
2018-04-08T01:38:50.028Z,9.53
2018-04-08T01:41:18.313Z,9.33
2018-04-08T01:43:45.824Z,8.33
2018-04-08T01:46:13.333Z,7.43
2018-04-08T01:48:40.841Z,8.07
2018-04-08T01:51:08.303Z,7.70
2018-04-08T01:53:35.853Z,6.57
2018-04-08T01:56:03.343Z,5.90
2018-04-08T01:58:31.562Z,6.43
2018-04-08T02:00:59.047Z,6.77
2018-04-08T02:03:26.523Z,6.37
2018-04-08T02:05:54.025Z,6.07
2018-04-08T02:08:21.505Z,6.43
2018-04-08T02:10:49.028Z,7.13
2018-04-08T02:13:16.518Z,7.07
2018-04-08T02:15:44.025Z,5.53
2018-04-08T02:18:12.274Z,5.80
2018-04-08T02:20:39.776Z,6.40
2018-04-08T02:23:08.013Z,6.57
2018-04-08T02:25:35.513Z,5.80
2018-04-08T02:28:03.003Z,5.63
2018-04-08T02:30:30.529Z,5.77
2018-04-08T02:32:57.996Z,5.20
2018-04-08T02:35:25.495Z,5.03
2018-04-08T02:37:52.965Z,5.10
2018-04-08T02:40:20.483Z,4.60
2018-04-08T02:42:48.012Z,5.27
2018-04-08T02:45:16.278Z,4.63
2018-04-08T02:47:44.513Z,5.20
2018-04-08T02:50:12.022Z,7.10
2018-04-08T02:52:40.280Z,7.10
2018-04-08T02:55:08.575Z,7.50
2018-04-08T02:57:36.805Z,8.63
2018-04-08T03:00:04.322Z,8.10
2018-04-08T03:02:31.801Z,8.70
2018-04-08T03:04:59.286Z,8.13
2018-04-08T03:07:26.778Z,7.27
2018-04-08T03:09:55.092Z,7.93
2018-04-08T03:12:22.554Z,7.77
2018-04-08T03:14:50.046Z,6.07
2018-04-08T03:17:17.512Z,5.90
2018-04-08T03:19:45.801Z,4.93
2018-04-08T03:22:14.032Z,5.00
2018-04-08T03:24:41.513Z,4.40
2018-04-08T03:27:09.007Z,4.57
2018-04-08T03:29:36.479Z,4.90
2018-04-08T03:32:03.986Z,5.30
2018-04-08T03:34:31.468Z,5.03
2018-04-08T03:36:59.747Z,5.10
2018-04-08T03:39:27.994Z,5.00
2018-04-08T03:41:55.572Z,5.67
2018-04-08T03:44:23.808Z,4.90
2018-04-08T03:46:51.310Z,5.60
2018-04-08T03:49:19.556Z,4.60
2018-04-08T03:51:47.057Z,4.73
2018-04-08T03:54:14.537Z,5.33
2018-04-08T03:56:42.040Z,4.30
2018-04-08T03:59:09.545Z,6.03
2018-04-08T04:01:37.041Z,6.27
2018-04-08T04:04:04.503Z,8.07
2018-04-08T04:06:32.001Z,7.40
2018-04-08T04:08:59.454Z,7.33
2018-04-08T04:11:26.958Z,6.97
2018-04-08T04:13:54.512Z,7.20
2018-04-08T04:16:22.014Z,6.77
2018-04-08T04:19:02.134Z,7.10
2018-04-08T04:21:41.556Z,6.80
2018-04-08T04:27:12.664Z,6.20
2018-04-08T04:29:40.142Z,5.83
2018-04-08T04:32:07.643Z,6.70
2018-04-08T04:34:35.110Z,6.90
2018-04-08T04:37:02.634Z,6.87
2018-04-08T04:39:30.100Z,7.23
2018-04-08T04:41:57.591Z,6.80
2018-04-08T04:44:25.064Z,7.07
2018-04-08T04:46:52.555Z,7.07
2018-04-08T04:49:20.015Z,6.50
2018-04-08T04:51:47.849Z,6.50
2018-04-08T04:54:16.098Z,5.60
2018-04-08T04:56:43.567Z,5.87
2018-04-08T04:59:11.071Z,5.47
2018-04-08T05:01:38.556Z,4.97
2018-04-08T05:04:06.056Z,5.60
2018-04-08T05:06:33.519Z,5.43
2018-04-08T05:09:01.801Z,5.60
2018-04-08T05:11:30.040Z,5.30
2018-04-08T05:13:57.630Z,5.43
2018-04-08T05:16:27.871Z,5.73
2018-04-08T05:18:56.149Z,5.60
2018-04-08T05:21:23.618Z,5.30
2018-04-08T05:23:51.122Z,4.93
2018-04-08T05:26:18.591Z,6.10
2018-04-08T05:28:46.088Z,6.77
2018-04-08T05:31:13.561Z,7.47
2018-04-08T05:33:41.080Z,6.93
2018-04-08T05:36:09.321Z,7.57
2018-04-08T05:38:36.821Z,7.27
2018-04-08T05:41:04.321Z,7.00
2018-04-08T05:43:31.817Z,6.63
2018-04-08T05:45:59.295Z,6.43
2018-04-08T05:48:27.573Z,7.20
2018-04-08T05:50:55.063Z,7.40
2018-04-08T05:53:22.562Z,7.10
2018-04-08T05:55:50.091Z,6.37
2018-04-08T05:58:17.594Z,6.80
2018-04-08T06:00:45.832Z,5.97
2018-04-08T06:03:13.330Z,7.00
2018-04-08T06:05:42.405Z,6.93
2018-04-08T06:08:10.713Z,6.30
2018-04-08T06:10:38.980Z,6.50
2018-04-08T06:13:17.546Z,5.67
2018-04-08T06:15:45.031Z,6.60
2018-04-08T06:18:12.547Z,5.97
2018-04-08T06:20:40.034Z,5.87
2018-04-08T06:23:07.714Z,5.07
2018-04-08T06:25:35.221Z,5.93
2018-04-08T06:28:02.741Z,5.93
2018-04-08T06:30:31.004Z,6.33
2018-04-08T06:32:58.524Z,6.37
2018-04-08T06:35:26.029Z,6.47
2018-04-08T06:37:53.695Z,6.57
2018-04-08T06:40:21.953Z,5.97
2018-04-08T06:42:49.450Z,6.50
2018-04-08T06:45:16.965Z,6.33
2018-04-08T06:47:44.459Z,6.13
2018-04-08T06:50:12.696Z,6.10
2018-04-08T06:52:40.202Z,6.17
2018-04-08T06:55:07.773Z,6.57
2018-04-08T06:57:35.285Z,6.37
2018-04-08T07:00:02.757Z,6.83
2018-04-08T07:02:31.029Z,7.13
2018-04-08T07:04:59.276Z,7.67
2018-04-08T07:07:26.795Z,6.90
2018-04-08T07:09:54.270Z,7.03
2018-04-08T07:12:21.821Z,8.27
2018-04-08T07:14:49.374Z,7.80
2018-04-08T07:17:16.874Z,7.23
2018-04-08T07:19:44.339Z,7.13
2018-04-08T07:22:11.852Z,7.00
2018-04-08T07:24:39.360Z,7.33
2018-04-08T07:27:06.876Z,7.77
2018-04-08T07:29:34.363Z,7.90
2018-04-08T07:32:01.873Z,9.00
2018-04-08T07:34:29.373Z,8.53
2018-04-08T07:36:56.870Z,8.93
2018-04-08T07:39:25.114Z,9.00
2018-04-08T07:41:52.620Z,9.03
2018-04-08T07:44:20.461Z,8.40
2018-04-08T07:46:49.089Z,9.60
2018-04-08T07:49:16.595Z,9.63
2018-04-08T07:51:44.066Z,10.00
2018-04-08T07:54:12.347Z,9.60
2018-04-08T07:56:40.605Z,9.77
2018-04-08T07:59:08.159Z,12.10
2018-04-08T08:01:35.619Z,11.90
2018-04-08T08:04:03.146Z,10.33
2018-04-08T08:06:30.643Z,11.50
2018-04-08T08:08:58.937Z,11.37
2018-04-08T08:11:26.446Z,11.17
2018-04-08T08:13:53.961Z,11.30
2018-04-08T08:16:21.444Z,13.18
2018-04-08T08:18:48.970Z,12.70
2018-04-08T08:21:17.220Z,13.43
2018-04-08T08:23:44.742Z,12.00
2018-04-08T08:26:12.323Z,11.43
2018-04-08T08:28:39.846Z,11.98
2018-04-08T08:31:07.343Z,11.77
2018-04-08T08:33:34.862Z,10.90
2018-04-08T08:36:02.342Z,11.73
2018-04-08T08:38:29.862Z,11.30
2018-04-08T08:40:57.333Z,11.70
2018-04-08T08:43:25.618Z,10.45
2018-04-08T08:45:53.198Z,10.23
2018-04-08T08:48:20.725Z,9.90
2018-04-08T08:50:48.981Z,9.35
2018-04-08T08:53:17.389Z,10.43
2018-04-08T08:55:44.884Z,10.30
2018-04-08T08:58:12.376Z,9.48
2018-04-08T09:00:39.877Z,9.85
2018-04-08T09:03:07.364Z,9.65
2018-04-08T09:05:34.859Z,10.40
2018-04-08T09:08:02.367Z,10.43
2018-04-08T09:10:29.914Z,11.00
2018-04-08T09:12:57.404Z,10.93
2018-04-08T09:15:24.917Z,11.23
2018-04-08T09:17:52.403Z,10.80
2018-04-08T09:20:25.517Z,11.05
2018-04-08T09:26:10.698Z,11.12
2018-04-08T09:28:38.171Z,10.52
2018-04-08T09:31:05.671Z,9.95
2018-04-08T09:33:33.152Z,12.13
2018-04-08T09:36:01.280Z,11.50
2018-04-08T09:38:28.814Z,11.63
2018-04-08T09:40:57.108Z,11.23
2018-04-08T09:43:25.347Z,12.63
2018-04-08T09:45:52.874Z,12.27
2018-04-08T09:48:20.388Z,12.75
2018-04-08T09:50:47.891Z,11.63
2018-04-08T09:53:15.359Z,12.37
2018-04-08T09:55:42.862Z,12.40
2018-04-08T09:58:11.973Z,12.40
2018-04-08T10:03:48.847Z,12.57
2018-04-08T10:06:16.375Z,12.18
2018-04-08T10:08:43.868Z,11.85
2018-04-08T10:11:12.140Z,12.57
2018-04-08T10:13:39.626Z,12.77
2018-04-08T10:16:07.151Z,12.82
2018-04-08T10:18:34.639Z,11.35
2018-04-08T10:21:02.168Z,11.23
2018-04-08T10:23:29.690Z,13.18
2018-04-08T10:25:57.196Z,12.02
2018-04-08T10:28:25.453Z,10.75
2018-04-08T10:30:52.957Z,12.45
2018-04-08T10:33:20.441Z,13.27
2018-04-08T10:35:47.965Z,12.60
2018-04-08T10:38:15.459Z,10.98
2018-04-08T10:40:42.983Z,10.88
2018-04-08T10:43:10.471Z,10.05
2018-04-08T10:45:38.012Z,10.55
2018-04-08T10:48:05.491Z,10.07
2018-04-08T10:50:33.011Z,10.05
2018-04-08T10:53:01.273Z,10.45
2018-04-08T10:55:29.558Z,11.38
2018-04-08T10:57:57.849Z,10.48
2018-04-08T11:00:25.349Z,10.05
2018-04-08T11:02:52.833Z,8.98
2018-04-08T11:05:21.150Z,9.00
2018-04-08T11:07:48.638Z,9.07
2018-04-08T11:10:16.147Z,8.60
2018-04-08T11:12:44.446Z,7.55
2018-04-08T11:15:11.960Z,7.78
2018-04-08T11:17:39.436Z,6.90
2018-04-08T11:20:07.715Z,8.27
2018-04-08T11:22:35.183Z,7.75
2018-04-08T11:25:02.719Z,7.97
2018-04-08T11:27:30.968Z,8.27
2018-04-08T11:29:58.467Z,7.78
2018-04-08T11:32:25.932Z,8.25
2018-04-08T11:34:53.442Z,7.22
2018-04-08T11:37:20.941Z,7.37
2018-04-08T11:39:48.481Z,8.18
2018-04-08T11:42:15.953Z,8.18
2018-04-08T11:44:44.187Z,7.80
2018-04-08T11:47:11.699Z,8.45
2018-04-08T11:49:39.193Z,12.00
2018-04-08T11:52:06.696Z,11.65
2018-04-08T11:54:35.005Z,10.30
2018-04-08T11:57:02.489Z,10.75
2018-04-08T11:59:30.182Z,10.52
2018-04-08T12:01:57.726Z,10.10
2018-04-08T12:04:25.176Z,10.60
2018-04-08T12:06:52.708Z,10.75
2018-04-08T12:09:20.246Z,11.23
2018-04-08T12:11:47.759Z,10.07
2018-04-08T12:14:15.296Z,10.27
2018-04-08T12:16:42.768Z,10.73
2018-04-08T12:19:10.264Z,11.50
2018-04-08T12:21:38.570Z,9.13
2018-04-08T12:24:06.081Z,8.55
2018-04-08T12:26:43.494Z,8.43
2018-04-08T12:29:11.756Z,7.80
2018-04-08T12:31:39.251Z,8.35
2018-04-08T12:34:06.876Z,9.65
2018-04-08T12:36:35.128Z,8.68
2018-04-08T12:39:02.610Z,8.10
2018-04-08T12:41:30.901Z,7.78
2018-04-08T12:43:58.376Z,8.88
2018-04-08T12:46:25.894Z,9.20
2018-04-08T12:48:53.382Z,6.80
2018-04-08T12:51:20.885Z,8.07
2018-04-08T12:53:48.369Z,8.75
2018-04-08T12:56:15.874Z,8.38
2018-04-08T12:58:43.355Z,8.30
2018-04-08T13:01:10.869Z,8.30
2018-04-08T13:03:38.404Z,8.18
2018-04-08T13:06:05.888Z,10.85
2018-04-08T13:08:33.381Z,8.50
2018-04-08T13:11:00.878Z,7.40
2018-04-08T13:13:29.145Z,7.85
2018-04-08T13:15:56.681Z,8.43
2018-04-08T13:18:24.193Z,7.15
2018-04-08T13:20:51.700Z,6.70
2018-04-08T13:23:19.184Z,7.75
2018-04-08T13:25:47.462Z,7.45
2018-04-08T13:28:15.710Z,6.45
2018-04-08T13:30:43.221Z,5.87
2018-04-08T13:33:10.689Z,5.72
2018-04-08T13:35:38.214Z,5.95
2018-04-08T13:38:06.461Z,4.80
2018-04-08T13:40:34.726Z,4.37
2018-04-08T13:43:02.221Z,3.65
2018-04-08T13:45:30.476Z,3.95
2018-04-08T13:47:58.012Z,4.37
2018-04-08T13:50:25.492Z,3.97
2018-04-08T13:52:53.040Z,4.12
2018-04-08T13:55:20.517Z,3.80
2018-04-08T13:57:48.015Z,3.65
2018-04-08T14:00:15.505Z,3.95
2018-04-08T14:02:43.028Z,4.37
2018-04-08T14:05:10.508Z,3.83
2018-04-08T14:07:38.025Z,3.90
2018-04-08T14:10:06.285Z,4.32
2018-04-08T14:12:33.781Z,3.87
2018-04-08T14:15:01.246Z,3.90
2018-04-08T14:17:28.763Z,3.37
2018-04-08T14:19:56.248Z,3.55
2018-04-08T14:22:24.510Z,2.80
2018-04-08T14:24:52.766Z,3.78
2018-04-08T14:27:20.360Z,2.95
2018-04-08T14:29:47.835Z,3.60
2018-04-08T14:32:15.362Z,3.22
2018-04-08T14:34:42.866Z,3.03
2018-04-08T14:37:10.351Z,3.20
2018-04-08T14:39:37.868Z,2.83
2018-04-08T14:42:05.398Z,3.00
2018-04-08T14:44:33.660Z,3.75
2018-04-08T14:47:03.953Z,3.05
2018-04-08T14:49:31.428Z,3.00
2018-04-08T14:51:58.937Z,3.47
2018-04-08T14:54:26.441Z,3.03
2018-04-08T14:56:53.967Z,3.08
2018-04-08T14:59:21.460Z,4.45
2018-04-08T15:01:48.985Z,3.28
2018-04-08T15:04:16.475Z,3.15
2018-04-08T15:06:43.983Z,3.62
2018-04-08T15:09:11.464Z,3.28
2018-04-08T15:11:38.991Z,3.33
2018-04-08T15:14:07.237Z,3.67
2018-04-08T15:16:34.759Z,3.28
2018-04-08T15:19:02.251Z,4.45
2018-04-08T15:21:29.773Z,3.15
2018-04-08T15:23:57.245Z,3.90
2018-04-08T15:26:24.773Z,3.30
2018-04-08T15:28:52.243Z,3.12
2018-04-08T15:31:19.764Z,3.80
2018-04-08T15:33:47.239Z,3.30
2018-04-08T15:36:14.766Z,3.40
2018-04-08T15:38:43.022Z,3.80
2018-04-08T15:41:10.562Z,4.05
2018-04-08T15:43:38.304Z,4.25
2018-04-08T15:46:05.818Z,3.67
2018-04-08T15:48:33.490Z,3.62
2018-04-08T15:51:01.766Z,3.62
2018-04-08T15:53:30.041Z,3.75
2018-04-08T15:55:58.336Z,3.60
2018-04-08T15:58:25.800Z,3.33
2018-04-08T16:00:53.341Z,3.87
2018-04-08T16:03:21.603Z,3.75
2018-04-08T16:05:49.158Z,3.97
2018-04-08T16:08:16.757Z,4.12
2018-04-08T16:10:44.250Z,4.75
2018-04-08T16:13:11.736Z,4.00
2018-04-08T16:15:39.267Z,3.90
2018-04-08T16:18:06.728Z,5.30
2018-04-08T16:20:34.236Z,4.93
2018-04-08T16:23:01.719Z,4.47
2018-04-08T16:25:29.241Z,4.80
2018-04-08T16:27:57.486Z,4.77
2018-04-08T16:30:25.950Z,5.13
2018-04-08T16:32:53.468Z,4.87
2018-04-08T16:35:21.799Z,4.93
2018-04-08T16:37:49.312Z,4.40
2018-04-08T16:40:16.838Z,3.90
2018-04-08T16:42:44.332Z,4.17
2018-04-08T16:45:11.848Z,4.17
2018-04-08T16:47:39.333Z,4.10
2018-04-08T16:50:06.902Z,4.60
2018-04-08T16:52:35.124Z,4.30
2018-04-08T16:55:02.643Z,4.37
2018-04-08T16:57:30.146Z,4.47
2018-04-08T16:59:57.612Z,4.00
2018-04-08T17:02:25.139Z,4.93
2018-04-08T17:04:52.639Z,3.93
2018-04-08T17:07:20.132Z,4.10
2018-04-08T17:09:47.613Z,4.10
2018-04-08T17:12:15.133Z,3.40
2018-04-08T17:14:42.639Z,3.73
2018-04-08T17:17:12.381Z,4.47
2018-04-08T17:19:40.654Z,4.00
2018-04-08T17:22:08.154Z,4.27
2018-04-08T17:24:35.634Z,3.50
2018-04-08T17:27:03.160Z,3.57
2018-04-08T17:29:30.649Z,3.90
2018-04-08T17:31:58.164Z,3.50
2018-04-08T17:34:25.654Z,4.37
2018-04-08T17:36:53.155Z,3.73
2018-04-08T17:39:20.646Z,4.17
2018-04-08T17:41:48.171Z,3.80
2018-04-08T17:44:15.664Z,4.40
2018-04-08T17:46:43.192Z,4.10
2018-04-08T17:49:10.668Z,3.57
2018-04-08T17:51:39.193Z,4.10
2018-04-08T17:54:06.674Z,5.20
2018-04-08T17:56:34.176Z,4.63
2018-04-08T17:59:02.438Z,4.57
2018-04-08T18:01:30.719Z,5.17
2018-04-08T18:03:58.962Z,4.20
2018-04-08T18:06:26.509Z,4.77
2018-04-08T18:08:53.987Z,3.90
2018-04-08T18:11:21.541Z,3.90
2018-04-08T18:13:49.064Z,4.73
2018-04-08T18:16:16.562Z,4.63
2018-04-08T18:18:44.889Z,4.90
2018-04-08T18:21:12.518Z,4.37
2018-04-08T18:23:40.021Z,5.20
2018-04-08T18:26:07.541Z,5.13
2018-04-08T18:28:35.051Z,6.00
2018-04-08T18:31:02.560Z,4.80
2018-04-08T18:33:30.175Z,4.73
2018-04-08T18:35:57.660Z,4.73
2018-04-08T18:38:25.995Z,4.57
2018-04-08T18:40:53.774Z,5.30
2018-04-08T18:43:21.469Z,5.17
2018-04-08T18:45:49.775Z,5.77
2018-04-08T18:48:17.307Z,6.37
2018-04-08T18:50:45.580Z,6.80
2018-04-08T18:53:13.866Z,6.20
2018-04-08T18:55:41.373Z,6.37
2018-04-08T18:58:08.928Z,6.17
2018-04-08T19:00:36.412Z,5.97
2018-04-08T19:03:04.060Z,5.43
2018-04-08T19:05:31.597Z,4.90
2018-04-08T19:07:59.225Z,5.60
2018-04-08T19:10:27.476Z,4.80
2018-04-08T19:12:55.137Z,5.50
2018-04-08T19:15:23.547Z,5.60
2018-04-08T19:17:57.552Z,5.77
2018-04-08T19:20:25.040Z,5.80
2018-04-08T19:22:53.336Z,5.07
2018-04-08T19:25:20.815Z,7.23
2018-04-08T19:27:49.112Z,6.43
2018-04-08T19:30:21.165Z,6.37
2018-04-08T19:32:48.677Z,6.93
2018-04-08T19:35:16.192Z,5.50
2018-04-08T19:37:44.512Z,6.07
2018-04-08T19:40:12.077Z,5.50
2018-04-08T19:42:39.607Z,6.33
2018-04-08T19:45:07.853Z,7.93
2018-04-08T19:47:35.373Z,8.33
2018-04-08T19:50:02.856Z,10.43
2018-04-08T19:52:30.369Z,7.20
2018-04-08T19:54:58.060Z,5.17
2018-04-08T19:57:25.579Z,4.07
2018-04-08T19:59:53.063Z,3.90
2018-04-08T20:02:20.594Z,5.23
2018-04-08T20:04:48.331Z,6.33
2018-04-08T20:07:16.641Z,4.57
2018-04-08T20:09:44.158Z,3.93
2018-04-08T20:12:12.533Z,4.73
2018-04-08T20:14:40.819Z,5.70
2018-04-08T20:17:08.338Z,5.10
2018-04-08T20:19:35.855Z,5.50
2018-04-08T20:22:03.374Z,5.50
2018-04-08T20:24:30.861Z,5.60
2018-04-08T20:26:59.173Z,6.70
2018-04-08T20:29:26.699Z,8.33
2018-04-08T20:31:54.982Z,9.43
2018-04-08T20:34:23.237Z,7.40
2018-04-08T20:36:50.758Z,8.10
2018-04-08T20:39:18.242Z,6.50
2018-04-08T20:41:45.757Z,6.03
2018-04-08T20:44:13.324Z,5.90
2018-04-08T20:46:40.855Z,6.03
2018-04-08T20:49:09.233Z,5.93
2018-04-08T20:51:36.692Z,6.43
2018-04-08T20:54:05.923Z,6.07
2018-04-08T20:56:33.464Z,5.30
2018-04-08T20:59:00.948Z,6.33
2018-04-08T21:01:29.408Z,12.33
2018-04-08T21:03:56.894Z,10.60
2018-04-08T21:06:24.396Z,7.77
2018-04-08T21:08:52.686Z,7.70
2018-04-08T21:11:20.216Z,10.87
2018-04-08T21:13:47.723Z,9.73
2018-04-08T21:16:15.261Z,10.07
2018-04-08T21:18:43.526Z,10.70
2018-04-08T21:21:11.809Z,8.83
2018-04-08T21:23:39.334Z,9.13
2018-04-08T21:26:06.845Z,8.80
2018-04-08T21:28:34.382Z,9.33
2018-04-08T21:31:02.652Z,8.50
2018-04-08T21:33:30.892Z,10.57
2018-04-08T21:35:58.415Z,11.93
2018-04-08T21:38:25.919Z,11.53
2018-04-08T21:40:53.404Z,8.50
2018-04-08T21:43:21.692Z,8.53
2018-04-08T21:45:49.180Z,8.20
2018-04-08T21:48:16.820Z,7.93
2018-04-08T21:50:44.350Z,7.40
2018-04-08T21:53:15.249Z,8.20
2018-04-08T21:55:42.770Z,6.77
2018-04-08T21:58:10.287Z,6.60
2018-04-08T22:00:37.804Z,6.20
2018-04-08T22:03:05.355Z,5.80
2018-04-08T22:05:32.826Z,5.43
2018-04-08T22:08:00.340Z,6.37
2018-04-08T22:10:27.829Z,5.70
2018-04-08T22:12:55.332Z,5.93
2018-04-08T22:15:22.846Z,6.07
2018-04-08T22:17:50.349Z,5.23
2018-04-08T22:20:17.825Z,6.40
2018-04-08T22:22:45.353Z,6.70
2018-04-08T22:25:12.826Z,5.23
2018-04-08T22:27:40.326Z,4.53
2018-04-08T22:30:07.807Z,4.23
2018-04-08T22:32:35.324Z,3.83
2018-04-08T22:35:03.584Z,4.60
2018-04-08T22:37:31.093Z,4.80
2018-04-08T22:39:58.567Z,4.60
2018-04-08T22:42:26.091Z,5.13
2018-04-08T22:44:53.572Z,5.47
2018-04-08T22:47:21.073Z,5.10
2018-04-08T22:49:48.573Z,5.70
2018-04-08T22:52:16.238Z,6.57
2018-04-08T22:54:43.711Z,6.27
2018-04-08T22:57:11.201Z,6.90
2018-04-08T22:59:38.723Z,5.80
2018-04-08T23:02:06.224Z,6.40
2018-04-08T23:04:33.714Z,6.70
2018-04-08T23:07:01.959Z,7.73
2018-04-08T23:09:29.489Z,7.43
2018-04-08T23:11:56.973Z,7.43
2018-04-08T23:14:24.471Z,6.57
2018-04-08T23:16:51.968Z,7.17
2018-04-08T23:19:19.448Z,6.63
2018-04-08T23:21:46.964Z,7.00
2018-04-08T23:24:14.445Z,6.53
2018-04-08T23:26:42.010Z,6.00
2018-04-08T23:29:09.492Z,6.13
2018-04-08T23:31:37.035Z,6.03
2018-04-08T23:34:04.528Z,6.17
2018-04-08T23:36:32.006Z,5.50
2018-04-08T23:38:59.512Z,6.20
2018-04-08T23:41:27.012Z,4.90
2018-04-08T23:43:54.507Z,5.17
2018-04-08T23:46:22.006Z,4.80
2018-04-08T23:48:50.290Z,4.93
2018-04-08T23:51:18.573Z,5.37
2018-04-08T23:53:46.084Z,5.10
2018-04-08T23:56:13.569Z,5.03
2018-04-08T23:58:41.080Z,5.17
